sensor_id;sensor_type;location;lat;lon;timestamp;temperature;humidity
46508;DHT22;32223;53.654;10.014;2022-08-14T00:02:03;21.60;99.90
46508;DHT22;32223;53.654;10.014;2022-08-14T00:04:34;21.60;99.90
46508;DHT22;32223;53.654;10.014;2022-08-14T00:07:00;21.50;99.90
46508;DHT22;32223;53.654;10.014;2022-08-14T00:09:25;21.50;99.90
46508;DHT22;32223;53.654;10.014;2022-08-14T00:11:51;21.40;99.90
46508;DHT22;32223;53.654;10.014;2022-08-14T00:14:17;21.40;99.90
46508;DHT22;32223;53.654;10.014;2022-08-14T00:16:43;21.40;99.90
46508;DHT22;32223;53.654;10.014;2022-08-14T00:19:08;21.30;99.90
46508;DHT22;32223;53.654;10.014;2022-08-14T00:21:34;21.30;99.90
46508;DHT22;32223;53.654;10.014;2022-08-14T00:24:01;21.30;99.90
46508;DHT22;32223;53.654;10.014;2022-08-14T00:26:28;21.30;99.90
46508;DHT22;32223;53.654;10.014;2022-08-14T00:28:54;21.30;99.90
46508;DHT22;32223;53.654;10.014;2022-08-14T00:31:20;21.20;99.90
46508;DHT22;32223;53.654;10.014;2022-08-14T00:33:46;21.20;99.90
46508;DHT22;32223;53.654;10.014;2022-08-14T00:36:12;21.20;99.90
46508;DHT22;32223;53.654;10.014;2022-08-14T00:38:38;21.20;99.90
46508;DHT22;32223;53.654;10.014;2022-08-14T00:41:05;21.10;99.90
46508;DHT22;32223;53.654;10.014;2022-08-14T00:43:33;21.00;99.90
46508;DHT22;32223;53.654;10.014;2022-08-14T00:46:08;21.00;99.90
46508;DHT22;32223;53.654;10.014;2022-08-14T00:48:35;20.90;99.90
46508;DHT22;32223;53.654;10.014;2022-08-14T00:51:02;20.90;99.90
46508;DHT22;32223;53.654;10.014;2022-08-14T00:53:28;20.80;99.90
46508;DHT22;32223;53.654;10.014;2022-08-14T00:55:54;20.80;99.90
46508;DHT22;32223;53.654;10.014;2022-08-14T00:58:21;20.90;99.90
46508;DHT22;32223;53.654;10.014;2022-08-14T01:03:26;20.80;99.90
46508;DHT22;32223;53.654;10.014;2022-08-14T01:05:54;20.80;99.90
46508;DHT22;32223;53.654;10.014;2022-08-14T01:08:26;20.70;99.90
46508;DHT22;32223;53.654;10.014;2022-08-14T01:10:54;20.80;99.90
46508;DHT22;32223;53.654;10.014;2022-08-14T01:13:29;20.70;99.90
46508;DHT22;32223;53.654;10.014;2022-08-14T01:15:58;20.70;99.90
46508;DHT22;32223;53.654;10.014;2022-08-14T01:18:27;20.90;99.90
46508;DHT22;32223;53.654;10.014;2022-08-14T01:21:12;21.00;99.90
46508;DHT22;32223;53.654;10.014;2022-08-14T01:23:42;21.00;99.90
46508;DHT22;32223;53.654;10.014;2022-08-14T01:26:09;21.20;99.90
46508;DHT22;32223;53.654;10.014;2022-08-14T01:28:37;21.20;99.90
46508;DHT22;32223;53.654;10.014;2022-08-14T01:31:05;21.20;99.90
46508;DHT22;32223;53.654;10.014;2022-08-14T01:33:34;21.20;99.90
46508;DHT22;32223;53.654;10.014;2022-08-14T01:36:06;21.30;99.90
46508;DHT22;32223;53.654;10.014;2022-08-14T01:38:32;21.20;99.90
46508;DHT22;32223;53.654;10.014;2022-08-14T01:41:07;21.20;99.90
46508;DHT22;32223;53.654;10.014;2022-08-14T01:43:52;21.20;99.90
46508;DHT22;32223;53.654;10.014;2022-08-14T01:46:22;21.20;99.90
46508;DHT22;32223;53.654;10.014;2022-08-14T01:48:48;21.10;99.90
46508;DHT22;32223;53.654;10.014;2022-08-14T01:51:19;21.10;99.90
46508;DHT22;32223;53.654;10.014;2022-08-14T01:53:55;21.00;99.90
46508;DHT22;32223;53.654;10.014;2022-08-14T01:56:23;21.00;99.90
46508;DHT22;32223;53.654;10.014;2022-08-14T01:58:59;21.00;99.90
46508;DHT22;32223;53.654;10.014;2022-08-14T02:01:25;21.00;99.90
46508;DHT22;32223;53.654;10.014;2022-08-14T02:03:51;21.00;99.90
46508;DHT22;32223;53.654;10.014;2022-08-14T02:06:17;20.90;99.90
46508;DHT22;32223;53.654;10.014;2022-08-14T02:08:43;20.80;99.90
46508;DHT22;32223;53.654;10.014;2022-08-14T02:11:10;20.70;99.90
46508;DHT22;32223;53.654;10.014;2022-08-14T02:13:42;20.60;99.90
46508;DHT22;32223;53.654;10.014;2022-08-14T02:16:10;20.60;99.90
46508;DHT22;32223;53.654;10.014;2022-08-14T02:18:36;20.70;99.90
46508;DHT22;32223;53.654;10.014;2022-08-14T02:21:03;20.70;99.90
46508;DHT22;32223;53.654;10.014;2022-08-14T02:23:30;20.70;99.90
46508;DHT22;32223;53.654;10.014;2022-08-14T02:25:58;20.70;99.90
46508;DHT22;32223;53.654;10.014;2022-08-14T02:28:25;20.70;99.90
46508;DHT22;32223;53.654;10.014;2022-08-14T02:30:51;20.80;99.90
46508;DHT22;32223;53.654;10.014;2022-08-14T02:33:17;20.70;99.90
46508;DHT22;32223;53.654;10.014;2022-08-14T02:35:43;20.70;99.90
46508;DHT22;32223;53.654;10.014;2022-08-14T02:38:09;20.60;99.90
46508;DHT22;32223;53.654;10.014;2022-08-14T02:40:35;20.60;99.90
46508;DHT22;32223;53.654;10.014;2022-08-14T02:43:03;20.60;99.90
46508;DHT22;32223;53.654;10.014;2022-08-14T02:45:29;20.60;99.90
46508;DHT22;32223;53.654;10.014;2022-08-14T02:47:58;20.60;99.90
46508;DHT22;32223;53.654;10.014;2022-08-14T02:50:24;20.60;99.90
46508;DHT22;32223;53.654;10.014;2022-08-14T02:52:49;20.60;99.90
46508;DHT22;32223;53.654;10.014;2022-08-14T02:55:15;20.60;99.90
46508;DHT22;32223;53.654;10.014;2022-08-14T02:57:41;20.60;99.90
46508;DHT22;32223;53.654;10.014;2022-08-14T03:00:09;20.50;99.90
46508;DHT22;32223;53.654;10.014;2022-08-14T03:02:37;20.50;99.90
46508;DHT22;32223;53.654;10.014;2022-08-14T03:05:04;20.50;99.90
46508;DHT22;32223;53.654;10.014;2022-08-14T03:07:29;20.50;99.90
46508;DHT22;32223;53.654;10.014;2022-08-14T03:09:55;20.50;99.90
46508;DHT22;32223;53.654;10.014;2022-08-14T03:12:21;20.40;99.90
46508;DHT22;32223;53.654;10.014;2022-08-14T03:14:47;20.40;99.90
46508;DHT22;32223;53.654;10.014;2022-08-14T03:17:16;20.40;99.90
46508;DHT22;32223;53.654;10.014;2022-08-14T03:19:41;20.30;99.90
46508;DHT22;32223;53.654;10.014;2022-08-14T03:22:08;20.40;99.90
46508;DHT22;32223;53.654;10.014;2022-08-14T03:24:33;20.40;99.90
46508;DHT22;32223;53.654;10.014;2022-08-14T03:27:01;20.50;99.90
46508;DHT22;32223;53.654;10.014;2022-08-14T03:29:27;20.50;99.90
46508;DHT22;32223;53.654;10.014;2022-08-14T03:31:56;20.60;99.90
46508;DHT22;32223;53.654;10.014;2022-08-14T03:34:24;20.70;99.90
46508;DHT22;32223;53.654;10.014;2022-08-14T03:36:50;20.70;99.90
46508;DHT22;32223;53.654;10.014;2022-08-14T03:39:20;20.70;99.90
46508;DHT22;32223;53.654;10.014;2022-08-14T03:41:50;20.70;99.90
46508;DHT22;32223;53.654;10.014;2022-08-14T03:44:16;20.70;99.90
46508;DHT22;32223;53.654;10.014;2022-08-14T03:46:42;20.60;99.90
46508;DHT22;32223;53.654;10.014;2022-08-14T03:49:08;20.70;99.90
46508;DHT22;32223;53.654;10.014;2022-08-14T03:51:35;20.70;99.90
46508;DHT22;32223;53.654;10.014;2022-08-14T03:54:04;20.70;99.90
46508;DHT22;32223;53.654;10.014;2022-08-14T03:56:33;20.70;99.90
46508;DHT22;32223;53.654;10.014;2022-08-14T03:59:03;20.70;99.90
46508;DHT22;32223;53.654;10.014;2022-08-14T04:01:37;20.70;99.90
46508;DHT22;32223;53.654;10.014;2022-08-14T04:04:07;20.70;99.90
46508;DHT22;32223;53.654;10.014;2022-08-14T04:06:34;20.70;99.90
46508;DHT22;32223;53.654;10.014;2022-08-14T04:09:00;20.70;99.90
46508;DHT22;32223;53.654;10.014;2022-08-14T04:11:26;20.80;99.90
46508;DHT22;32223;53.654;10.014;2022-08-14T04:13:51;20.80;99.90
46508;DHT22;32223;53.654;10.014;2022-08-14T04:16:20;20.80;99.90
46508;DHT22;32223;53.654;10.014;2022-08-14T04:18:49;20.70;99.90
46508;DHT22;32223;53.654;10.014;2022-08-14T04:21:16;20.70;99.90
46508;DHT22;32223;53.654;10.014;2022-08-14T04:23:43;20.80;99.90
46508;DHT22;32223;53.654;10.014;2022-08-14T04:26:11;20.80;99.90
46508;DHT22;32223;53.654;10.014;2022-08-14T04:28:39;20.90;99.90
46508;DHT22;32223;53.654;10.014;2022-08-14T04:31:06;21.00;99.90
46508;DHT22;32223;53.654;10.014;2022-08-14T04:33:32;20.90;99.90
46508;DHT22;32223;53.654;10.014;2022-08-14T04:35:58;20.90;99.90
46508;DHT22;32223;53.654;10.014;2022-08-14T04:38:24;20.90;99.90
46508;DHT22;32223;53.654;10.014;2022-08-14T04:41:09;20.90;99.90
46508;DHT22;32223;53.654;10.014;2022-08-14T04:43:53;20.90;99.90
46508;DHT22;32223;53.654;10.014;2022-08-14T04:46:20;20.90;99.90
46508;DHT22;32223;53.654;10.014;2022-08-14T04:48:47;20.80;99.90
46508;DHT22;32223;53.654;10.014;2022-08-14T04:51:17;20.80;99.90
46508;DHT22;32223;53.654;10.014;2022-08-14T04:53:45;20.90;99.90
46508;DHT22;32223;53.654;10.014;2022-08-14T04:56:16;20.90;99.90
46508;DHT22;32223;53.654;10.014;2022-08-14T04:58:44;21.00;99.90
46508;DHT22;32223;53.654;10.014;2022-08-14T05:01:12;21.00;99.90
46508;DHT22;32223;53.654;10.014;2022-08-14T05:03:39;21.00;99.90
46508;DHT22;32223;53.654;10.014;2022-08-14T05:06:08;21.10;99.90
46508;DHT22;32223;53.654;10.014;2022-08-14T05:08:34;21.00;99.90
46508;DHT22;32223;53.654;10.014;2022-08-14T05:11:02;21.00;99.90
46508;DHT22;32223;53.654;10.014;2022-08-14T05:13:30;21.00;99.90
46508;DHT22;32223;53.654;10.014;2022-08-14T05:15:57;21.10;99.90
46508;DHT22;32223;53.654;10.014;2022-08-14T05:18:28;21.10;99.90
46508;DHT22;32223;53.654;10.014;2022-08-14T05:20:57;21.20;99.90
46508;DHT22;32223;53.654;10.014;2022-08-14T05:23:26;21.30;99.90
46508;DHT22;32223;53.654;10.014;2022-08-14T05:25:54;21.20;99.90
46508;DHT22;32223;53.654;10.014;2022-08-14T05:28:26;21.10;99.90
46508;DHT22;32223;53.654;10.014;2022-08-14T05:30:54;21.20;99.90
46508;DHT22;32223;53.654;10.014;2022-08-14T05:33:22;21.30;99.90
46508;DHT22;32223;53.654;10.014;2022-08-14T05:35:49;21.40;99.90
46508;DHT22;32223;53.654;10.014;2022-08-14T05:38:17;21.60;99.90
46508;DHT22;32223;53.654;10.014;2022-08-14T05:40:44;21.70;99.90
46508;DHT22;32223;53.654;10.014;2022-08-14T05:43:11;21.80;99.90
46508;DHT22;32223;53.654;10.014;2022-08-14T05:45:37;21.80;99.90
46508;DHT22;32223;53.654;10.014;2022-08-14T05:48:04;21.80;99.90
46508;DHT22;32223;53.654;10.014;2022-08-14T05:50:31;21.90;99.90
46508;DHT22;32223;53.654;10.014;2022-08-14T05:52:58;22.00;99.90
46508;DHT22;32223;53.654;10.014;2022-08-14T05:55:24;22.20;99.90
46508;DHT22;32223;53.654;10.014;2022-08-14T05:57:57;22.20;99.90
46508;DHT22;32223;53.654;10.014;2022-08-14T06:00:25;22.20;99.90
46508;DHT22;32223;53.654;10.014;2022-08-14T06:02:51;22.30;99.90
46508;DHT22;32223;53.654;10.014;2022-08-14T06:05:16;22.40;99.90
46508;DHT22;32223;53.654;10.014;2022-08-14T06:07:42;22.40;99.90
46508;DHT22;32223;53.654;10.014;2022-08-14T06:10:09;22.50;99.90
46508;DHT22;32223;53.654;10.014;2022-08-14T06:12:36;22.60;99.90
46508;DHT22;32223;53.654;10.014;2022-08-14T06:15:04;22.70;99.90
46508;DHT22;32223;53.654;10.014;2022-08-14T06:17:30;22.80;99.90
46508;DHT22;32223;53.654;10.014;2022-08-14T06:19:56;22.80;99.90
46508;DHT22;32223;53.654;10.014;2022-08-14T06:22:21;23.00;99.90
46508;DHT22;32223;53.654;10.014;2022-08-14T06:24:47;23.10;99.90
46508;DHT22;32223;53.654;10.014;2022-08-14T06:27:13;23.10;99.90
46508;DHT22;32223;53.654;10.014;2022-08-14T06:29:38;23.10;99.90
46508;DHT22;32223;53.654;10.014;2022-08-14T06:32:04;23.20;99.90
46508;DHT22;32223;53.654;10.014;2022-08-14T06:34:30;23.20;99.90
46508;DHT22;32223;53.654;10.014;2022-08-14T06:36:56;23.20;99.90
46508;DHT22;32223;53.654;10.014;2022-08-14T06:39:23;23.30;99.90
46508;DHT22;32223;53.654;10.014;2022-08-14T06:41:49;23.30;99.90
46508;DHT22;32223;53.654;10.014;2022-08-14T06:44:14;23.40;99.90
46508;DHT22;32223;53.654;10.014;2022-08-14T06:46:40;23.40;99.90
46508;DHT22;32223;53.654;10.014;2022-08-14T06:49:06;23.60;99.90
46508;DHT22;32223;53.654;10.014;2022-08-14T06:51:31;23.60;99.90
46508;DHT22;32223;53.654;10.014;2022-08-14T06:53:57;23.60;99.90
46508;DHT22;32223;53.654;10.014;2022-08-14T06:56:23;23.80;99.90
46508;DHT22;32223;53.654;10.014;2022-08-14T06:58:49;23.80;99.90
46508;DHT22;32223;53.654;10.014;2022-08-14T07:01:14;24.00;99.90
46508;DHT22;32223;53.654;10.014;2022-08-14T07:03:59;24.10;99.90
46508;DHT22;32223;53.654;10.014;2022-08-14T07:06:43;24.10;99.90
46508;DHT22;32223;53.654;10.014;2022-08-14T07:09:10;24.20;99.90
46508;DHT22;32223;53.654;10.014;2022-08-14T07:11:36;24.20;99.90
46508;DHT22;32223;53.654;10.014;2022-08-14T07:14:02;24.30;99.90
46508;DHT22;32223;53.654;10.014;2022-08-14T07:16:27;24.30;99.90
46508;DHT22;32223;53.654;10.014;2022-08-14T07:18:53;24.40;99.90
46508;DHT22;32223;53.654;10.014;2022-08-14T07:21:18;24.40;99.90
46508;DHT22;32223;53.654;10.014;2022-08-14T07:23:44;24.40;99.90
46508;DHT22;32223;53.654;10.014;2022-08-14T07:26:10;24.50;99.90
46508;DHT22;32223;53.654;10.014;2022-08-14T07:28:38;24.60;99.90
46508;DHT22;32223;53.654;10.014;2022-08-14T07:31:06;24.60;99.90
46508;DHT22;32223;53.654;10.014;2022-08-14T07:33:38;24.50;99.90
46508;DHT22;32223;53.654;10.014;2022-08-14T07:36:07;24.50;99.90
46508;DHT22;32223;53.654;10.014;2022-08-14T07:38:34;24.60;99.90
46508;DHT22;32223;53.654;10.014;2022-08-14T07:41:01;24.70;99.90
46508;DHT22;32223;53.654;10.014;2022-08-14T07:43:27;24.80;99.90
46508;DHT22;32223;53.654;10.014;2022-08-14T07:45:53;24.80;99.90
46508;DHT22;32223;53.654;10.014;2022-08-14T07:48:18;24.90;99.90
46508;DHT22;32223;53.654;10.014;2022-08-14T07:50:45;25.00;99.90
46508;DHT22;32223;53.654;10.014;2022-08-14T07:53:12;25.10;99.90
46508;DHT22;32223;53.654;10.014;2022-08-14T07:55:41;25.20;99.90
46508;DHT22;32223;53.654;10.014;2022-08-14T07:58:07;25.20;99.90
46508;DHT22;32223;53.654;10.014;2022-08-14T08:00:32;25.30;99.90
46508;DHT22;32223;53.654;10.014;2022-08-14T08:02:58;25.40;99.90
46508;DHT22;32223;53.654;10.014;2022-08-14T08:05:25;25.60;99.90
46508;DHT22;32223;53.654;10.014;2022-08-14T08:07:52;25.60;99.90
46508;DHT22;32223;53.654;10.014;2022-08-14T08:10:24;25.70;99.90
46508;DHT22;32223;53.654;10.014;2022-08-14T08:13:09;25.80;99.90
46508;DHT22;32223;53.654;10.014;2022-08-14T08:15:43;25.90;99.90
46508;DHT22;32223;53.654;10.014;2022-08-14T08:18:11;26.00;99.90
46508;DHT22;32223;53.654;10.014;2022-08-14T08:20:41;26.20;99.90
46508;DHT22;32223;53.654;10.014;2022-08-14T08:23:09;26.60;99.90
46508;DHT22;32223;53.654;10.014;2022-08-14T08:25:39;26.70;99.90
46508;DHT22;32223;53.654;10.014;2022-08-14T08:28:17;27.00;99.90
46508;DHT22;32223;53.654;10.014;2022-08-14T08:30:55;27.20;99.90
46508;DHT22;32223;53.654;10.014;2022-08-14T08:33:23;27.40;99.90
46508;DHT22;32223;53.654;10.014;2022-08-14T08:35:50;27.70;99.90
46508;DHT22;32223;53.654;10.014;2022-08-14T08:38:19;27.80;99.90
46508;DHT22;32223;53.654;10.014;2022-08-14T08:40:47;27.80;99.90
46508;DHT22;32223;53.654;10.014;2022-08-14T08:43:18;27.80;99.90
46508;DHT22;32223;53.654;10.014;2022-08-14T08:45:54;28.00;99.90
46508;DHT22;32223;53.654;10.014;2022-08-14T08:48:21;28.10;99.90
46508;DHT22;32223;53.654;10.014;2022-08-14T08:50:47;28.30;99.90
46508;DHT22;32223;53.654;10.014;2022-08-14T08:53:13;28.40;99.90
46508;DHT22;32223;53.654;10.014;2022-08-14T08:55:42;28.50;99.90
46508;DHT22;32223;53.654;10.014;2022-08-14T08:58:14;28.60;99.90
46508;DHT22;32223;53.654;10.014;2022-08-14T09:00:41;28.60;99.90
46508;DHT22;32223;53.654;10.014;2022-08-14T09:03:13;28.60;99.90
46508;DHT22;32223;53.654;10.014;2022-08-14T09:08:21;28.60;99.90
46508;DHT22;32223;53.654;10.014;2022-08-14T09:10:50;28.60;99.90
46508;DHT22;32223;53.654;10.014;2022-08-14T09:13:16;28.50;99.90
46508;DHT22;32223;53.654;10.014;2022-08-14T09:15:45;28.60;99.90
46508;DHT22;32223;53.654;10.014;2022-08-14T09:18:12;28.80;99.90
46508;DHT22;32223;53.654;10.014;2022-08-14T09:20:40;29.00;99.90
46508;DHT22;32223;53.654;10.014;2022-08-14T09:23:07;29.20;99.90
46508;DHT22;32223;53.654;10.014;2022-08-14T09:25:34;29.20;99.90
46508;DHT22;32223;53.654;10.014;2022-08-14T09:28:01;29.30;99.90
46508;DHT22;32223;53.654;10.014;2022-08-14T09:30:27;29.40;99.90
46508;DHT22;32223;53.654;10.014;2022-08-14T09:38:43;29.30;99.90
46508;DHT22;32223;53.654;10.014;2022-08-14T09:44:05;29.40;99.90
46508;DHT22;32223;53.654;10.014;2022-08-14T09:46:33;29.30;99.90
46508;DHT22;32223;53.654;10.014;2022-08-14T09:49:00;29.10;99.90
46508;DHT22;32223;53.654;10.014;2022-08-14T09:51:28;29.00;99.90
46508;DHT22;32223;53.654;10.014;2022-08-14T09:54:05;29.10;99.90
46508;DHT22;32223;53.654;10.014;2022-08-14T09:56:48;29.10;99.90
46508;DHT22;32223;53.654;10.014;2022-08-14T09:59:16;29.00;99.90
46508;DHT22;32223;53.654;10.014;2022-08-14T10:01:47;29.10;99.90
46508;DHT22;32223;53.654;10.014;2022-08-14T10:04:21;29.20;99.90
46508;DHT22;32223;53.654;10.014;2022-08-14T10:06:49;29.20;99.90
46508;DHT22;32223;53.654;10.014;2022-08-14T10:09:16;29.30;99.90
46508;DHT22;32223;53.654;10.014;2022-08-14T10:11:56;29.20;99.90
46508;DHT22;32223;53.654;10.014;2022-08-14T10:14:23;29.30;99.90
46508;DHT22;32223;53.654;10.014;2022-08-14T10:16:55;29.20;99.90
46508;DHT22;32223;53.654;10.014;2022-08-14T10:19:23;29.10;99.90
46508;DHT22;32223;53.654;10.014;2022-08-14T10:22:22;29.10;99.90
46508;DHT22;32223;53.654;10.014;2022-08-14T10:24:53;29.20;99.90
46508;DHT22;32223;53.654;10.014;2022-08-14T10:27:21;29.30;99.90
46508;DHT22;32223;53.654;10.014;2022-08-14T10:29:57;29.40;99.90
46508;DHT22;32223;53.654;10.014;2022-08-14T10:32:29;29.90;99.90
46508;DHT22;32223;53.654;10.014;2022-08-14T10:35:06;30.50;99.90
46508;DHT22;32223;53.654;10.014;2022-08-14T10:37:40;30.70;99.90
46508;DHT22;32223;53.654;10.014;2022-08-14T10:40:07;30.60;99.90
46508;DHT22;32223;53.654;10.014;2022-08-14T10:42:35;30.40;99.90
46508;DHT22;32223;53.654;10.014;2022-08-14T10:45:01;30.20;99.90
46508;DHT22;32223;53.654;10.014;2022-08-14T10:47:36;30.20;99.90
46508;DHT22;32223;53.654;10.014;2022-08-14T10:50:04;30.10;99.90
46508;DHT22;32223;53.654;10.014;2022-08-14T10:52:31;30.00;99.90
46508;DHT22;32223;53.654;10.014;2022-08-14T10:55:15;29.90;99.90
46508;DHT22;32223;53.654;10.014;2022-08-14T10:57:54;29.80;99.90
46508;DHT22;32223;53.654;10.014;2022-08-14T11:00:23;29.60;99.90
46508;DHT22;32223;53.654;10.014;2022-08-14T11:03:03;29.50;99.90
46508;DHT22;32223;53.654;10.014;2022-08-14T11:05:45;29.40;99.90
46508;DHT22;32223;53.654;10.014;2022-08-14T11:08:14;29.20;99.90
46508;DHT22;32223;53.654;10.014;2022-08-14T11:10:57;29.10;99.90
46508;DHT22;32223;53.654;10.014;2022-08-14T11:13:28;29.10;99.90
46508;DHT22;32223;53.654;10.014;2022-08-14T11:15:55;29.10;99.90
46508;DHT22;32223;53.654;10.014;2022-08-14T11:18:25;29.10;99.90
46508;DHT22;32223;53.654;10.014;2022-08-14T11:20:54;29.00;99.90
46508;DHT22;32223;53.654;10.014;2022-08-14T11:23:34;29.10;99.90
46508;DHT22;32223;53.654;10.014;2022-08-14T11:26:01;29.10;99.90
46508;DHT22;32223;53.654;10.014;2022-08-14T11:28:31;29.20;99.90
46508;DHT22;32223;53.654;10.014;2022-08-14T11:30:58;29.30;99.90
46508;DHT22;32223;53.654;10.014;2022-08-14T11:33:26;29.20;99.90
46508;DHT22;32223;53.654;10.014;2022-08-14T11:35:56;29.10;99.90
46508;DHT22;32223;53.654;10.014;2022-08-14T11:38:24;29.10;99.90
46508;DHT22;32223;53.654;10.014;2022-08-14T11:40:51;29.20;99.90
46508;DHT22;32223;53.654;10.014;2022-08-14T11:43:16;29.30;99.90
46508;DHT22;32223;53.654;10.014;2022-08-14T11:45:46;29.30;99.90
46508;DHT22;32223;53.654;10.014;2022-08-14T11:48:16;29.30;99.90
46508;DHT22;32223;53.654;10.014;2022-08-14T11:50:43;29.40;99.90
46508;DHT22;32223;53.654;10.014;2022-08-14T11:53:24;29.50;99.90
46508;DHT22;32223;53.654;10.014;2022-08-14T11:56:00;29.50;99.90
46508;DHT22;32223;53.654;10.014;2022-08-14T11:58:38;29.40;99.90
46508;DHT22;32223;53.654;10.014;2022-08-14T12:01:06;29.60;99.90
46508;DHT22;32223;53.654;10.014;2022-08-14T12:03:41;29.70;99.90
46508;DHT22;32223;53.654;10.014;2022-08-14T12:06:08;29.70;99.90
46508;DHT22;32223;53.654;10.014;2022-08-14T12:08:36;29.60;99.90
46508;DHT22;32223;53.654;10.014;2022-08-14T12:11:03;29.60;99.90
46508;DHT22;32223;53.654;10.014;2022-08-14T12:13:30;29.50;99.90
46508;DHT22;32223;53.654;10.014;2022-08-14T12:16:06;29.30;99.90
46508;DHT22;32223;53.654;10.014;2022-08-14T12:21:13;29.10;99.90
46508;DHT22;32223;53.654;10.014;2022-08-14T12:23:39;29.10;99.90
46508;DHT22;32223;53.654;10.014;2022-08-14T12:26:08;29.10;99.90
46508;DHT22;32223;53.654;10.014;2022-08-14T12:28:35;29.10;99.90
46508;DHT22;32223;53.654;10.014;2022-08-14T12:31:13;29.20;99.90
46508;DHT22;32223;53.654;10.014;2022-08-14T12:33:41;29.40;99.90
46508;DHT22;32223;53.654;10.014;2022-08-14T12:36:08;29.60;99.90
46508;DHT22;32223;53.654;10.014;2022-08-14T12:38:45;30.10;99.90
46508;DHT22;32223;53.654;10.014;2022-08-14T12:41:19;30.60;99.90
46508;DHT22;32223;53.654;10.014;2022-08-14T12:43:47;30.70;99.90
46508;DHT22;32223;53.654;10.014;2022-08-14T12:46:24;31.30;99.90
46508;DHT22;32223;53.654;10.014;2022-08-14T12:48:50;31.30;99.90
46508;DHT22;32223;53.654;10.014;2022-08-14T12:51:22;31.40;99.90
46508;DHT22;32223;53.654;10.014;2022-08-14T12:53:52;31.50;99.90
46508;DHT22;32223;53.654;10.014;2022-08-14T12:56:20;31.50;99.90
46508;DHT22;32223;53.654;10.014;2022-08-14T12:58:50;31.40;99.90
46508;DHT22;32223;53.654;10.014;2022-08-14T13:01:35;31.50;99.90
46508;DHT22;32223;53.654;10.014;2022-08-14T13:04:11;31.70;99.90
46508;DHT22;32223;53.654;10.014;2022-08-14T13:06:40;32.40;99.90
46508;DHT22;32223;53.654;10.014;2022-08-14T13:09:07;32.60;99.90
46508;DHT22;32223;53.654;10.014;2022-08-14T13:14:12;32.60;99.90
46508;DHT22;32223;53.654;10.014;2022-08-14T13:16:40;33.10;99.90
46508;DHT22;32223;53.654;10.014;2022-08-14T13:19:25;33.80;99.90
46508;DHT22;32223;53.654;10.014;2022-08-14T13:21:51;33.70;99.90
46508;DHT22;32223;53.654;10.014;2022-08-14T13:24:21;34.00;99.90
46508;DHT22;32223;53.654;10.014;2022-08-14T13:26:49;33.60;99.90
46508;DHT22;32223;53.654;10.014;2022-08-14T13:29:21;33.20;99.90
46508;DHT22;32223;53.654;10.014;2022-08-14T13:31:50;32.70;99.90
46508;DHT22;32223;53.654;10.014;2022-08-14T13:34:20;33.20;99.90
46508;DHT22;32223;53.654;10.014;2022-08-14T13:36:47;33.80;99.80
46508;DHT22;32223;53.654;10.014;2022-08-14T13:39:18;34.30;97.80
46508;DHT22;32223;53.654;10.014;2022-08-14T13:41:44;34.40;97.40
46508;DHT22;32223;53.654;10.014;2022-08-14T13:44:12;34.50;96.60
46508;DHT22;32223;53.654;10.014;2022-08-14T13:46:40;34.00;96.10
46508;DHT22;32223;53.654;10.014;2022-08-14T13:49:05;33.50;96.00
46508;DHT22;32223;53.654;10.014;2022-08-14T13:51:42;33.20;97.00
46508;DHT22;32223;53.654;10.014;2022-08-14T13:54:17;33.00;96.60
46508;DHT22;32223;53.654;10.014;2022-08-14T13:56:45;33.70;96.90
46508;DHT22;32223;53.654;10.014;2022-08-14T13:59:12;34.80;96.00
46508;DHT22;32223;53.654;10.014;2022-08-14T14:01:39;35.20;96.60
46508;DHT22;32223;53.654;10.014;2022-08-14T14:04:13;35.70;96.20
46508;DHT22;32223;53.654;10.014;2022-08-14T14:06:40;36.20;95.20
46508;DHT22;32223;53.654;10.014;2022-08-14T14:09:08;36.70;94.30
46508;DHT22;32223;53.654;10.014;2022-08-14T14:11:35;37.10;93.40
46508;DHT22;32223;53.654;10.014;2022-08-14T14:14:00;37.40;92.50
46508;DHT22;32223;53.654;10.014;2022-08-14T14:16:26;37.80;91.80
46508;DHT22;32223;53.654;10.014;2022-08-14T14:18:54;37.90;90.80
46508;DHT22;32223;53.654;10.014;2022-08-14T14:21:22;37.90;90.00
46508;DHT22;32223;53.654;10.014;2022-08-14T14:23:49;37.60;89.20
46508;DHT22;32223;53.654;10.014;2022-08-14T14:26:17;37.40;88.00
46508;DHT22;32223;53.654;10.014;2022-08-14T14:28:46;37.50;88.20
46508;DHT22;32223;53.654;10.014;2022-08-14T14:31:22;37.90;86.40
46508;DHT22;32223;53.654;10.014;2022-08-14T14:33:50;37.50;85.10
46508;DHT22;32223;53.654;10.014;2022-08-14T14:36:22;37.70;85.20
46508;DHT22;32223;53.654;10.014;2022-08-14T14:39:00;37.30;84.60
46508;DHT22;32223;53.654;10.014;2022-08-14T14:41:29;36.30;84.90
46508;DHT22;32223;53.654;10.014;2022-08-14T14:43:55;35.40;85.90
46508;DHT22;32223;53.654;10.014;2022-08-14T14:46:22;34.30;89.00
46508;DHT22;32223;53.654;10.014;2022-08-14T14:48:49;34.40;89.00
46508;DHT22;32223;53.654;10.014;2022-08-14T14:51:16;35.00;88.30
46508;DHT22;32223;53.654;10.014;2022-08-14T14:53:43;35.60;86.40
46508;DHT22;32223;53.654;10.014;2022-08-14T14:56:09;35.70;86.30
46508;DHT22;32223;53.654;10.014;2022-08-14T14:58:36;35.30;86.70
46508;DHT22;32223;53.654;10.014;2022-08-14T15:01:07;34.70;86.90
46508;DHT22;32223;53.654;10.014;2022-08-14T15:03:35;34.80;87.80
46508;DHT22;32223;53.654;10.014;2022-08-14T15:06:03;34.70;87.10
46508;DHT22;32223;53.654;10.014;2022-08-14T15:08:30;34.30;88.20
46508;DHT22;32223;53.654;10.014;2022-08-14T15:10:56;34.00;89.30
46508;DHT22;32223;53.654;10.014;2022-08-14T15:13:27;33.90;88.80
46508;DHT22;32223;53.654;10.014;2022-08-14T15:15:53;33.60;90.30
46508;DHT22;32223;53.654;10.014;2022-08-14T15:18:20;34.10;90.20
46508;DHT22;32223;53.654;10.014;2022-08-14T15:20:47;35.00;89.30
46508;DHT22;32223;53.654;10.014;2022-08-14T15:23:13;35.60;86.80
46508;DHT22;32223;53.654;10.014;2022-08-14T15:25:41;35.60;87.20
46508;DHT22;32223;53.654;10.014;2022-08-14T15:28:08;36.10;86.20
46508;DHT22;32223;53.654;10.014;2022-08-14T15:30:41;36.20;85.00
46508;DHT22;32223;53.654;10.014;2022-08-14T15:33:07;35.80;85.40
46508;DHT22;32223;53.654;10.014;2022-08-14T15:35:33;35.90;84.40
46508;DHT22;32223;53.654;10.014;2022-08-14T15:38:00;36.10;85.00
46508;DHT22;32223;53.654;10.014;2022-08-14T15:40:39;36.30;83.90
46508;DHT22;32223;53.654;10.014;2022-08-14T15:43:09;35.80;82.80
46508;DHT22;32223;53.654;10.014;2022-08-14T15:45:39;35.10;83.70